Monroe, LA (71203)

6:23 PM CST on December 02, 2016 (GMT -0600)
Swartz | | Change Station

Elev 98 ft 32.56 °N, 92.02 °W | Updated 13 seconds ago

Clear
Clear
52.3 °F
Feels Like 52.3 °F
N
0.0
Wind Variable Wind from NW
Gusts 0.0 mph

Today
High -- | Low -- °F
--% Chance of Precip.
Yesterday
High -- | Low -- °F
Precip. -- in
Pressure 30.22 in
Visibility 10.0 miles
Clouds Clear
Dew Point 42 °F
Humidity 68%
Rainfall 0.00 in
Snow Depth Not available.
6:53 AM 5:02 PM
Waxing Crescent, 11% visible
METAR KMLU 022353Z 05004KT 10SM CLR 13/03 A3022 RMK AO2 SLP232 T01280028 10189 20128 53007
Pressure 30.22 in
Visibility 10.0 miles
Clouds Clear
Dew Point 42 °F
Humidity 68%
Rainfall 0.00 in
Snow Depth Not available.
6:53 AM 5:02 PM
Waxing Crescent, 11% visible
METAR KMLU 022353Z 05004KT 10SM CLR 13/03 A3022 RMK AO2 SLP232 T01280028 10189 20128 53007

10-Day Weather Forecast

Almanac

Astronomy

Dec. 02, 2016 Rise Set
Actual Time
Civil Twilight
Nautical Twilight
Astronomical Twilight
Moon
Length of Visible Light
Length of Day
Tomorrow will be .
, % of the Moon is Illuminated

Today's Extremes

State Highs State Lows

Community

WunderPhotos

Upload Photos

1,955,380 photos uploaded!

WunderBlog® & News

Nearby

Air Quality

  Air Quality AQ Index Pollutant
Not available.

Snow Depth

Station Depth Elevation

Earthquake Activity

City Distance Mag. Time & Date
Minimum magnitude displayed is 2.5.

Coastal Water Temperatures

Place Temperature

Stations

Nearby Weather Stations

Station Location Temp. Windchill Dew Point Humidity Wind Precip. Elev Updated Type
                   

Watches & Warnings

There are currently no watches in effect.